sensor_id;sensor_type;location;lat;lon;timestamp;P1;durP1;ratioP1;P2;durP2;ratioP2
24467;SDS011;12634;50.852;5.676;2023-02-25T00:00:05;9.27;;;2.50;;
24467;SDS011;12634;50.852;5.676;2023-02-25T00:02:41;11.60;;;2.72;;
24467;SDS011;12634;50.852;5.676;2023-02-25T00:05:09;13.25;;;2.85;;
24467;SDS011;12634;50.852;5.676;2023-02-25T00:07:37;11.70;;;3.63;;
24467;SDS011;12634;50.852;5.676;2023-02-25T00:10:04;13.00;;;3.30;;
24467;SDS011;12634;50.852;5.676;2023-02-25T00:12:33;14.43;;;2.88;;
24467;SDS011;12634;50.852;5.676;2023-02-25T00:15:02;8.93;;;2.95;;
24467;SDS011;12634;50.852;5.676;2023-02-25T00:17:30;9.10;;;3.08;;
24467;SDS011;12634;50.852;5.676;2023-02-25T00:19:57;13.20;;;3.00;;
24467;SDS011;12634;50.852;5.676;2023-02-25T00:22:25;10.32;;;3.15;;
24467;SDS011;12634;50.852;5.676;2023-02-25T00:24:53;8.18;;;2.92;;
24467;SDS011;12634;50.852;5.676;2023-02-25T00:27:21;11.45;;;2.83;;
24467;SDS011;12634;50.852;5.676;2023-02-25T00:29:50;11.38;;;3.30;;
24467;SDS011;12634;50.852;5.676;2023-02-25T00:32:19;11.75;;;3.00;;
24467;SDS011;12634;50.852;5.676;2023-02-25T00:34:48;7.90;;;3.35;;
24467;SDS011;12634;50.852;5.676;2023-02-25T00:37:16;8.00;;;2.88;;
24467;SDS011;12634;50.852;5.676;2023-02-25T00:39:43;6.88;;;2.50;;
24467;SDS011;12634;50.852;5.676;2023-02-25T00:42:11;8.95;;;2.92;;
24467;SDS011;12634;50.852;5.676;2023-02-25T00:44:41;9.50;;;2.30;;
24467;SDS011;12634;50.852;5.676;2023-02-25T00:47:10;8.93;;;2.50;;
24467;SDS011;12634;50.852;5.676;2023-02-25T00:49:39;7.43;;;2.22;;
24467;SDS011;12634;50.852;5.676;2023-02-25T00:52:06;7.95;;;2.40;;
24467;SDS011;12634;50.852;5.676;2023-02-25T00:54:33;14.35;;;2.47;;
24467;SDS011;12634;50.852;5.676;2023-02-25T00:57:01;11.82;;;4.10;;
24467;SDS011;12634;50.852;5.676;2023-02-25T00:59:28;12.15;;;3.63;;
24467;SDS011;12634;50.852;5.676;2023-02-25T01:01:55;12.13;;;2.92;;
24467;SDS011;12634;50.852;5.676;2023-02-25T01:04:22;12.32;;;2.78;;
24467;SDS011;12634;50.852;5.676;2023-02-25T01:06:51;10.60;;;2.67;;
24467;SDS011;12634;50.852;5.676;2023-02-25T01:09:19;11.50;;;2.97;;
24467;SDS011;12634;50.852;5.676;2023-02-25T01:11:46;12.85;;;2.88;;
24467;SDS011;12634;50.852;5.676;2023-02-25T01:14:15;8.95;;;2.90;;
24467;SDS011;12634;50.852;5.676;2023-02-25T01:16:44;23.02;;;3.30;;
24467;SDS011;12634;50.852;5.676;2023-02-25T01:19:12;12.20;;;3.10;;
24467;SDS011;12634;50.852;5.676;2023-02-25T01:21:42;10.10;;;2.30;;
24467;SDS011;12634;50.852;5.676;2023-02-25T01:24:12;7.97;;;2.83;;
24467;SDS011;12634;50.852;5.676;2023-02-25T01:26:43;9.88;;;3.05;;
24467;SDS011;12634;50.852;5.676;2023-02-25T01:29:12;10.48;;;2.30;;
24467;SDS011;12634;50.852;5.676;2023-02-25T01:31:41;10.98;;;2.30;;
24467;SDS011;12634;50.852;5.676;2023-02-25T01:34:10;9.38;;;2.08;;
24467;SDS011;12634;50.852;5.676;2023-02-25T01:36:40;11.02;;;2.75;;
24467;SDS011;12634;50.852;5.676;2023-02-25T01:39:08;8.77;;;2.30;;
24467;SDS011;12634;50.852;5.676;2023-02-25T01:41:37;10.73;;;2.58;;
24467;SDS011;12634;50.852;5.676;2023-02-25T01:44:07;11.55;;;2.88;;
24467;SDS011;12634;50.852;5.676;2023-02-25T01:46:36;7.40;;;2.33;;
24467;SDS011;12634;50.852;5.676;2023-02-25T01:49:05;6.55;;;2.25;;
24467;SDS011;12634;50.852;5.676;2023-02-25T01:51:36;4.95;;;1.92;;
24467;SDS011;12634;50.852;5.676;2023-02-25T01:54:04;10.00;;;2.08;;
24467;SDS011;12634;50.852;5.676;2023-02-25T01:56:34;8.15;;;2.00;;
24467;SDS011;12634;50.852;5.676;2023-02-25T01:59:05;9.10;;;2.70;;
24467;SDS011;12634;50.852;5.676;2023-02-25T02:01:33;8.73;;;2.50;;
24467;SDS011;12634;50.852;5.676;2023-02-25T02:04:03;8.20;;;2.15;;
24467;SDS011;12634;50.852;5.676;2023-02-25T02:06:34;9.85;;;2.42;;
24467;SDS011;12634;50.852;5.676;2023-02-25T02:09:03;5.13;;;1.83;;
24467;SDS011;12634;50.852;5.676;2023-02-25T02:11:32;12.50;;;3.08;;
24467;SDS011;12634;50.852;5.676;2023-02-25T02:14:00;8.63;;;2.72;;
24467;SDS011;12634;50.852;5.676;2023-02-25T02:16:35;7.22;;;1.90;;
24467;SDS011;12634;50.852;5.676;2023-02-25T02:19:20;6.13;;;2.00;;
24467;SDS011;12634;50.852;5.676;2023-02-25T02:21:56;6.38;;;2.00;;
24467;SDS011;12634;50.852;5.676;2023-02-25T02:24:39;7.82;;;1.73;;
24467;SDS011;12634;50.852;5.676;2023-02-25T02:27:29;5.47;;;2.13;;
24467;SDS011;12634;50.852;5.676;2023-02-25T02:33:06;10.27;;;2.58;;
24467;SDS011;12634;50.852;5.676;2023-02-25T02:35:38;11.63;;;2.50;;
24467;SDS011;12634;50.852;5.676;2023-02-25T02:38:13;8.57;;;2.25;;
24467;SDS011;12634;50.852;5.676;2023-02-25T02:40:49;7.82;;;2.40;;
24467;SDS011;12634;50.852;5.676;2023-02-25T02:43:26;6.53;;;1.92;;
24467;SDS011;12634;50.852;5.676;2023-02-25T02:46:03;11.00;;;2.63;;
24467;SDS011;12634;50.852;5.676;2023-02-25T02:48:36;9.83;;;2.53;;
24467;SDS011;12634;50.852;5.676;2023-02-25T02:51:09;8.70;;;2.42;;
24467;SDS011;12634;50.852;5.676;2023-02-25T02:53:42;8.93;;;2.60;;
24467;SDS011;12634;50.852;5.676;2023-02-25T02:56:13;11.10;;;3.08;;
24467;SDS011;12634;50.852;5.676;2023-02-25T02:58:45;9.32;;;2.40;;
24467;SDS011;12634;50.852;5.676;2023-02-25T03:01:18;9.98;;;2.42;;
24467;SDS011;12634;50.852;5.676;2023-02-25T03:03:50;8.35;;;2.47;;
24467;SDS011;12634;50.852;5.676;2023-02-25T03:06:24;10.10;;;2.72;;
24467;SDS011;12634;50.852;5.676;2023-02-25T03:08:55;7.35;;;2.50;;
24467;SDS011;12634;50.852;5.676;2023-02-25T03:11:27;8.85;;;3.10;;
24467;SDS011;12634;50.852;5.676;2023-02-25T03:13:55;9.75;;;3.03;;
24467;SDS011;12634;50.852;5.676;2023-02-25T03:16:23;8.02;;;2.30;;
24467;SDS011;12634;50.852;5.676;2023-02-25T03:18:56;13.50;;;3.03;;
24467;SDS011;12634;50.852;5.676;2023-02-25T03:21:29;7.05;;;2.65;;
24467;SDS011;12634;50.852;5.676;2023-02-25T03:24:02;11.15;;;2.60;;
24467;SDS011;12634;50.852;5.676;2023-02-25T03:26:33;10.02;;;3.00;;
24467;SDS011;12634;50.852;5.676;2023-02-25T03:29:00;13.05;;;2.25;;
24467;SDS011;12634;50.852;5.676;2023-02-25T03:31:28;8.43;;;2.65;;
24467;SDS011;12634;50.852;5.676;2023-02-25T03:34:00;11.27;;;3.00;;
24467;SDS011;12634;50.852;5.676;2023-02-25T03:36:32;10.98;;;2.75;;
24467;SDS011;12634;50.852;5.676;2023-02-25T03:39:04;11.75;;;2.47;;
24467;SDS011;12634;50.852;5.676;2023-02-25T03:41:36;7.10;;;2.30;;
24467;SDS011;12634;50.852;5.676;2023-02-25T03:44:13;10.05;;;2.35;;
24467;SDS011;12634;50.852;5.676;2023-02-25T03:46:44;6.35;;;2.30;;
24467;SDS011;12634;50.852;5.676;2023-02-25T03:49:20;10.18;;;2.42;;
24467;SDS011;12634;50.852;5.676;2023-02-25T03:51:52;7.28;;;2.65;;
24467;SDS011;12634;50.852;5.676;2023-02-25T03:54:21;8.50;;;2.30;;
24467;SDS011;12634;50.852;5.676;2023-02-25T03:56:49;14.52;;;2.45;;
24467;SDS011;12634;50.852;5.676;2023-02-25T03:59:16;12.77;;;2.70;;
24467;SDS011;12634;50.852;5.676;2023-02-25T04:01:45;11.80;;;2.38;;
24467;SDS011;12634;50.852;5.676;2023-02-25T04:04:17;11.18;;;2.40;;
24467;SDS011;12634;50.852;5.676;2023-02-25T04:06:44;9.07;;;1.90;;
24467;SDS011;12634;50.852;5.676;2023-02-25T04:09:11;9.90;;;2.17;;
24467;SDS011;12634;50.852;5.676;2023-02-25T04:11:39;8.13;;;2.25;;
24467;SDS011;12634;50.852;5.676;2023-02-25T04:14:06;11.02;;;2.10;;
24467;SDS011;12634;50.852;5.676;2023-02-25T04:16:33;7.80;;;2.63;;
24467;SDS011;12634;50.852;5.676;2023-02-25T04:19:00;12.48;;;2.67;;
24467;SDS011;12634;50.852;5.676;2023-02-25T04:21:29;6.35;;;1.65;;
24467;SDS011;12634;50.852;5.676;2023-02-25T04:23:59;9.35;;;2.35;;
24467;SDS011;12634;50.852;5.676;2023-02-25T04:26:27;7.50;;;1.85;;
24467;SDS011;12634;50.852;5.676;2023-02-25T04:28:54;11.75;;;2.38;;
24467;SDS011;12634;50.852;5.676;2023-02-25T04:31:21;11.98;;;2.33;;
24467;SDS011;12634;50.852;5.676;2023-02-25T04:33:48;10.27;;;2.03;;
24467;SDS011;12634;50.852;5.676;2023-02-25T04:36:22;8.75;;;2.35;;
24467;SDS011;12634;50.852;5.676;2023-02-25T04:38:52;11.85;;;3.00;;
24467;SDS011;12634;50.852;5.676;2023-02-25T04:41:20;13.48;;;2.38;;
24467;SDS011;12634;50.852;5.676;2023-02-25T04:43:47;10.20;;;2.30;;
24467;SDS011;12634;50.852;5.676;2023-02-25T04:46:14;10.82;;;1.90;;
24467;SDS011;12634;50.852;5.676;2023-02-25T04:48:41;7.90;;;2.08;;
24467;SDS011;12634;50.852;5.676;2023-02-25T04:51:08;6.05;;;1.92;;
24467;SDS011;12634;50.852;5.676;2023-02-25T04:53:35;7.40;;;1.88;;
24467;SDS011;12634;50.852;5.676;2023-02-25T04:56:05;7.53;;;1.95;;
24467;SDS011;12634;50.852;5.676;2023-02-25T04:58:34;8.55;;;1.88;;
24467;SDS011;12634;50.852;5.676;2023-02-25T05:01:03;8.48;;;1.88;;
24467;SDS011;12634;50.852;5.676;2023-02-25T05:03:33;13.88;;;2.75;;
24467;SDS011;12634;50.852;5.676;2023-02-25T05:06:01;7.20;;;1.65;;
24467;SDS011;12634;50.852;5.676;2023-02-25T05:08:28;5.10;;;1.58;;
24467;SDS011;12634;50.852;5.676;2023-02-25T05:10:57;11.90;;;2.50;;
24467;SDS011;12634;50.852;5.676;2023-02-25T05:13:26;9.90;;;1.95;;
24467;SDS011;12634;50.852;5.676;2023-02-25T05:16:01;8.18;;;1.50;;
24467;SDS011;12634;50.852;5.676;2023-02-25T05:18:30;10.70;;;2.33;;
24467;SDS011;12634;50.852;5.676;2023-02-25T05:21:00;17.10;;;1.65;;
24467;SDS011;12634;50.852;5.676;2023-02-25T05:23:27;9.15;;;2.05;;
24467;SDS011;12634;50.852;5.676;2023-02-25T05:25:54;6.70;;;2.22;;
24467;SDS011;12634;50.852;5.676;2023-02-25T05:28:22;11.00;;;2.10;;
24467;SDS011;12634;50.852;5.676;2023-02-25T05:30:51;7.97;;;1.75;;
24467;SDS011;12634;50.852;5.676;2023-02-25T05:33:19;8.60;;;1.58;;
24467;SDS011;12634;50.852;5.676;2023-02-25T05:35:47;11.73;;;1.83;;
24467;SDS011;12634;50.852;5.676;2023-02-25T05:38:14;9.52;;;1.80;;
24467;SDS011;12634;50.852;5.676;2023-02-25T05:40:41;7.22;;;1.80;;
24467;SDS011;12634;50.852;5.676;2023-02-25T05:43:09;7.80;;;1.52;;
24467;SDS011;12634;50.852;5.676;2023-02-25T05:45:36;11.35;;;2.00;;
24467;SDS011;12634;50.852;5.676;2023-02-25T05:48:05;12.52;;;2.75;;
24467;SDS011;12634;50.852;5.676;2023-02-25T05:50:32;10.85;;;2.00;;
24467;SDS011;12634;50.852;5.676;2023-02-25T05:53:05;9.30;;;2.03;;
24467;SDS011;12634;50.852;5.676;2023-02-25T05:55:33;9.57;;;1.80;;
24467;SDS011;12634;50.852;5.676;2023-02-25T05:58:01;7.97;;;1.85;;
24467;SDS011;12634;50.852;5.676;2023-02-25T06:00:28;15.23;;;2.17;;
24467;SDS011;12634;50.852;5.676;2023-02-25T06:02:55;9.85;;;1.85;;
24467;SDS011;12634;50.852;5.676;2023-02-25T06:05:24;11.13;;;1.95;;
24467;SDS011;12634;50.852;5.676;2023-02-25T06:07:51;6.85;;;1.85;;
24467;SDS011;12634;50.852;5.676;2023-02-25T06:10:18;10.20;;;2.10;;
24467;SDS011;12634;50.852;5.676;2023-02-25T06:12:46;8.02;;;1.58;;
24467;SDS011;12634;50.852;5.676;2023-02-25T06:15:13;9.30;;;1.75;;
24467;SDS011;12634;50.852;5.676;2023-02-25T06:17:40;12.10;;;1.90;;
24467;SDS011;12634;50.852;5.676;2023-02-25T06:20:08;6.15;;;1.90;;
24467;SDS011;12634;50.852;5.676;2023-02-25T06:22:37;8.68;;;1.70;;
24467;SDS011;12634;50.852;5.676;2023-02-25T06:25:05;10.57;;;2.10;;
24467;SDS011;12634;50.852;5.676;2023-02-25T06:27:33;8.77;;;1.95;;
24467;SDS011;12634;50.852;5.676;2023-02-25T06:30:00;7.97;;;1.67;;
24467;SDS011;12634;50.852;5.676;2023-02-25T06:32:27;7.55;;;1.63;;
24467;SDS011;12634;50.852;5.676;2023-02-25T06:34:54;7.25;;;1.85;;
24467;SDS011;12634;50.852;5.676;2023-02-25T06:37:22;8.45;;;1.75;;
24467;SDS011;12634;50.852;5.676;2023-02-25T06:39:50;11.73;;;1.98;;
24467;SDS011;12634;50.852;5.676;2023-02-25T06:42:18;10.35;;;2.45;;
24467;SDS011;12634;50.852;5.676;2023-02-25T06:44:45;11.27;;;1.90;;
24467;SDS011;12634;50.852;5.676;2023-02-25T06:47:12;7.65;;;2.17;;
24467;SDS011;12634;50.852;5.676;2023-02-25T06:49:39;10.02;;;2.00;;
24467;SDS011;12634;50.852;5.676;2023-02-25T06:52:06;10.45;;;2.13;;
24467;SDS011;12634;50.852;5.676;2023-02-25T06:54:33;6.80;;;2.00;;
24467;SDS011;12634;50.852;5.676;2023-02-25T06:57:02;7.68;;;1.80;;
24467;SDS011;12634;50.852;5.676;2023-02-25T06:59:29;7.75;;;2.05;;
24467;SDS011;12634;50.852;5.676;2023-02-25T07:01:59;13.23;;;2.33;;
24467;SDS011;12634;50.852;5.676;2023-02-25T07:04:27;9.30;;;2.00;;
24467;SDS011;12634;50.852;5.676;2023-02-25T07:06:54;12.02;;;2.08;;
24467;SDS011;12634;50.852;5.676;2023-02-25T07:09:21;9.60;;;2.15;;
24467;SDS011;12634;50.852;5.676;2023-02-25T07:11:48;10.13;;;1.90;;
24467;SDS011;12634;50.852;5.676;2023-02-25T07:14:17;7.68;;;1.58;;
24467;SDS011;12634;50.852;5.676;2023-02-25T07:16:44;9.40;;;2.08;;
24467;SDS011;12634;50.852;5.676;2023-02-25T07:19:11;7.63;;;1.70;;
24467;SDS011;12634;50.852;5.676;2023-02-25T07:21:40;10.70;;;2.03;;
24467;SDS011;12634;50.852;5.676;2023-02-25T07:24:08;13.32;;;2.47;;
24467;SDS011;12634;50.852;5.676;2023-02-25T07:26:36;12.80;;;2.00;;
24467;SDS011;12634;50.852;5.676;2023-02-25T07:29:04;10.77;;;2.53;;
24467;SDS011;12634;50.852;5.676;2023-02-25T07:31:33;10.23;;;1.88;;
24467;SDS011;12634;50.852;5.676;2023-02-25T07:34:00;8.02;;;2.08;;
24467;SDS011;12634;50.852;5.676;2023-02-25T07:36:28;7.53;;;1.95;;
24467;SDS011;12634;50.852;5.676;2023-02-25T07:38:57;7.13;;;2.10;;
24467;SDS011;12634;50.852;5.676;2023-02-25T07:41:26;7.63;;;1.73;;
24467;SDS011;12634;50.852;5.676;2023-02-25T07:43:54;10.43;;;1.75;;
24467;SDS011;12634;50.852;5.676;2023-02-25T07:46:21;8.98;;;1.70;;
24467;SDS011;12634;50.852;5.676;2023-02-25T07:48:50;8.93;;;2.58;;
24467;SDS011;12634;50.852;5.676;2023-02-25T07:51:18;7.40;;;2.03;;
24467;SDS011;12634;50.852;5.676;2023-02-25T07:53:47;11.18;;;2.15;;
24467;SDS011;12634;50.852;5.676;2023-02-25T07:56:16;6.70;;;1.33;;
24467;SDS011;12634;50.852;5.676;2023-02-25T07:58:45;8.02;;;2.08;;
24467;SDS011;12634;50.852;5.676;2023-02-25T08:01:18;11.32;;;1.65;;
24467;SDS011;12634;50.852;5.676;2023-02-25T08:03:49;13.07;;;1.80;;
24467;SDS011;12634;50.852;5.676;2023-02-25T08:06:17;10.90;;;2.33;;
24467;SDS011;12634;50.852;5.676;2023-02-25T08:08:45;13.32;;;2.45;;
24467;SDS011;12634;50.852;5.676;2023-02-25T08:11:15;12.43;;;2.35;;
24467;SDS011;12634;50.852;5.676;2023-02-25T08:13:42;15.32;;;2.63;;
24467;SDS011;12634;50.852;5.676;2023-02-25T08:16:10;16.00;;;2.60;;
24467;SDS011;12634;50.852;5.676;2023-02-25T08:18:40;12.88;;;2.92;;
24467;SDS011;12634;50.852;5.676;2023-02-25T08:21:09;6.50;;;1.77;;
24467;SDS011;12634;50.852;5.676;2023-02-25T08:23:37;11.07;;;2.00;;
24467;SDS011;12634;50.852;5.676;2023-02-25T08:26:04;8.13;;;1.80;;
24467;SDS011;12634;50.852;5.676;2023-02-25T08:28:34;14.27;;;2.10;;
24467;SDS011;12634;50.852;5.676;2023-02-25T08:31:01;11.38;;;4.45;;
24467;SDS011;12634;50.852;5.676;2023-02-25T08:33:30;8.48;;;2.10;;
24467;SDS011;12634;50.852;5.676;2023-02-25T08:36:04;11.23;;;2.05;;
24467;SDS011;12634;50.852;5.676;2023-02-25T08:38:35;12.27;;;2.13;;
24467;SDS011;12634;50.852;5.676;2023-02-25T08:41:03;10.38;;;2.03;;
24467;SDS011;12634;50.852;5.676;2023-02-25T08:43:31;9.30;;;2.33;;
24467;SDS011;12634;50.852;5.676;2023-02-25T08:45:58;12.02;;;2.20;;
24467;SDS011;12634;50.852;5.676;2023-02-25T08:48:26;12.75;;;2.45;;
24467;SDS011;12634;50.852;5.676;2023-02-25T08:50:53;10.63;;;2.15;;
24467;SDS011;12634;50.852;5.676;2023-02-25T08:53:20;14.13;;;2.38;;
24467;SDS011;12634;50.852;5.676;2023-02-25T08:55:49;13.15;;;3.15;;
24467;SDS011;12634;50.852;5.676;2023-02-25T08:58:18;7.97;;;1.83;;
24467;SDS011;12634;50.852;5.676;2023-02-25T09:00:45;10.88;;;2.17;;
24467;SDS011;12634;50.852;5.676;2023-02-25T09:03:14;13.95;;;3.15;;
24467;SDS011;12634;50.852;5.676;2023-02-25T09:05:41;9.05;;;2.10;;
24467;SDS011;12634;50.852;5.676;2023-02-25T09:08:08;11.23;;;2.53;;
24467;SDS011;12634;50.852;5.676;2023-02-25T09:10:36;19.17;;;2.35;;
24467;SDS011;12634;50.852;5.676;2023-02-25T09:13:04;11.90;;;2.03;;
24467;SDS011;12634;50.852;5.676;2023-02-25T09:15:32;10.85;;;2.13;;
24467;SDS011;12634;50.852;5.676;2023-02-25T09:17:59;9.27;;;2.05;;
24467;SDS011;12634;50.852;5.676;2023-02-25T09:20:26;12.25;;;1.63;;
24467;SDS011;12634;50.852;5.676;2023-02-25T09:22:53;13.30;;;2.10;;
24467;SDS011;12634;50.852;5.676;2023-02-25T09:25:20;10.80;;;2.03;;
24467;SDS011;12634;50.852;5.676;2023-02-25T09:27:48;11.95;;;2.40;;
24467;SDS011;12634;50.852;5.676;2023-02-25T09:30:16;14.02;;;2.08;;
24467;SDS011;12634;50.852;5.676;2023-02-25T09:32:44;13.57;;;2.70;;
24467;SDS011;12634;50.852;5.676;2023-02-25T09:35:11;15.43;;;2.50;;
24467;SDS011;12634;50.852;5.676;2023-02-25T09:37:38;13.77;;;2.08;;
24467;SDS011;12634;50.852;5.676;2023-02-25T09:40:05;14.82;;;2.22;;
24467;SDS011;12634;50.852;5.676;2023-02-25T09:42:39;8.32;;;2.30;;
24467;SDS011;12634;50.852;5.676;2023-02-25T09:45:14;10.98;;;2.30;;
24467;SDS011;12634;50.852;5.676;2023-02-25T09:47:47;8.90;;;2.93;;
24467;SDS011;12634;50.852;5.676;2023-02-25T09:50:20;12.05;;;2.70;;
24467;SDS011;12634;50.852;5.676;2023-02-25T09:52:52;11.38;;;2.08;;
24467;SDS011;12634;50.852;5.676;2023-02-25T09:55:29;12.80;;;2.05;;
24467;SDS011;12634;50.852;5.676;2023-02-25T09:58:00;12.05;;;1.92;;
24467;SDS011;12634;50.852;5.676;2023-02-25T10:00:36;16.00;;;3.40;;
24467;SDS011;12634;50.852;5.676;2023-02-25T10:03:10;13.40;;;2.88;;
24467;SDS011;12634;50.852;5.676;2023-02-25T10:05:47;11.68;;;1.92;;
24467;SDS011;12634;50.852;5.676;2023-02-25T10:08:20;12.73;;;2.35;;
24467;SDS011;12634;50.852;5.676;2023-02-25T10:10:55;16.17;;;2.70;;
24467;SDS011;12634;50.852;5.676;2023-02-25T10:13:32;12.32;;;2.17;;
24467;SDS011;12634;50.852;5.676;2023-02-25T10:16:15;9.32;;;2.17;;
24467;SDS011;12634;50.852;5.676;2023-02-25T10:18:59;12.73;;;2.17;;
24467;SDS011;12634;50.852;5.676;2023-02-25T10:21:40;10.27;;;1.70;;
24467;SDS011;12634;50.852;5.676;2023-02-25T10:24:24;12.50;;;1.85;;
24467;SDS011;12634;50.852;5.676;2023-02-25T10:26:57;11.05;;;1.83;;
24467;SDS011;12634;50.852;5.676;2023-02-25T10:29:33;7.13;;;1.65;;
24467;SDS011;12634;50.852;5.676;2023-02-25T10:32:14;7.38;;;1.75;;
24467;SDS011;12634;50.852;5.676;2023-02-25T10:34:43;9.65;;;2.05;;
24467;SDS011;12634;50.852;5.676;2023-02-25T10:37:13;8.85;;;2.00;;
24467;SDS011;12634;50.852;5.676;2023-02-25T10:39:45;11.40;;;1.98;;
24467;SDS011;12634;50.852;5.676;2023-02-25T10:42:14;9.25;;;1.63;;
24467;SDS011;12634;50.852;5.676;2023-02-25T10:44:42;7.07;;;2.33;;
24467;SDS011;12634;50.852;5.676;2023-02-25T10:47:12;11.48;;;1.85;;
24467;SDS011;12634;50.852;5.676;2023-02-25T10:52:44;9.07;;;2.17;;
24467;SDS011;12634;50.852;5.676;2023-02-25T10:55:27;13.30;;;2.50;;
24467;SDS011;12634;50.852;5.676;2023-02-25T10:57:59;11.38;;;2.45;;
24467;SDS011;12634;50.852;5.676;2023-02-25T11:00:27;7.22;;;1.60;;
24467;SDS011;12634;50.852;5.676;2023-02-25T11:02:57;9.93;;;1.55;;
24467;SDS011;12634;50.852;5.676;2023-02-25T11:05:30;7.10;;;1.52;;
24467;SDS011;12634;50.852;5.676;2023-02-25T11:08:01;7.72;;;1.73;;
24467;SDS011;12634;50.852;5.676;2023-02-25T11:10:32;10.32;;;2.63;;
24467;SDS011;12634;50.852;5.676;2023-02-25T11:12:59;10.30;;;1.80;;
24467;SDS011;12634;50.852;5.676;2023-02-25T11:15:30;7.53;;;2.08;;
24467;SDS011;12634;50.852;5.676;2023-02-25T11:18:06;9.38;;;2.05;;
24467;SDS011;12634;50.852;5.676;2023-02-25T11:20:47;8.48;;;1.65;;
24467;SDS011;12634;50.852;5.676;2023-02-25T11:23:19;5.95;;;1.70;;
24467;SDS011;12634;50.852;5.676;2023-02-25T11:25:47;6.40;;;1.73;;
24467;SDS011;12634;50.852;5.676;2023-02-25T11:28:19;10.50;;;2.13;;
24467;SDS011;12634;50.852;5.676;2023-02-25T11:31:03;7.68;;;1.58;;
24467;SDS011;12634;50.852;5.676;2023-02-25T11:33:37;10.27;;;2.10;;
24467;SDS011;12634;50.852;5.676;2023-02-25T11:36:08;7.83;;;1.67;;
24467;SDS011;12634;50.852;5.676;2023-02-25T11:38:37;5.90;;;1.13;;
24467;SDS011;12634;50.852;5.676;2023-02-25T11:41:12;7.30;;;1.73;;
24467;SDS011;12634;50.852;5.676;2023-02-25T11:43:43;7.32;;;1.35;;
24467;SDS011;12634;50.852;5.676;2023-02-25T11:46:11;7.30;;;2.00;;
24467;SDS011;12634;50.852;5.676;2023-02-25T11:48:48;2.83;;;0.77;;
24467;SDS011;12634;50.852;5.676;2023-02-25T11:51:27;2.10;;;0.60;;
24467;SDS011;12634;50.852;5.676;2023-02-25T11:54:07;2.42;;;0.32;;
24467;SDS011;12634;50.852;5.676;2023-02-25T11:56:44;4.78;;;0.70;;
24467;SDS011;12634;50.852;5.676;2023-02-25T12:02:18;1.60;;;0.40;;
24467;SDS011;12634;50.852;5.676;2023-02-25T12:08:19;1.05;;;0.60;;
24467;SDS011;12634;50.852;5.676;2023-02-25T12:14:26;1.27;;;0.65;;
24467;SDS011;12634;50.852;5.676;2023-02-25T12:20:18;1.75;;;0.50;;
24467;SDS011;12634;50.852;5.676;2023-02-25T12:26:32;1.20;;;0.60;;
24467;SDS011;12634;50.852;5.676;2023-02-25T12:29:15;1.10;;;0.63;;
24467;SDS011;12634;50.852;5.676;2023-02-25T12:32:05;0.88;;;0.40;;
24467;SDS011;12634;50.852;5.676;2023-02-25T12:38:20;2.65;;;0.75;;
24467;SDS011;12634;50.852;5.676;2023-02-25T12:41:20;1.63;;;0.47;;
24467;SDS011;12634;50.852;5.676;2023-02-25T12:44:02;3.85;;;0.63;;
24467;SDS011;12634;50.852;5.676;2023-02-25T12:46:49;2.05;;;0.60;;
24467;SDS011;12634;50.852;5.676;2023-02-25T12:49:33;2.20;;;0.50;;
24467;SDS011;12634;50.852;5.676;2023-02-25T12:52:23;2.58;;;0.50;;
24467;SDS011;12634;50.852;5.676;2023-02-25T12:55:14;1.98;;;0.65;;
24467;SDS011;12634;50.852;5.676;2023-02-25T12:58:03;2.38;;;0.52;;
24467;SDS011;12634;50.852;5.676;2023-02-25T13:13:04;6.18;;;0.70;;
24467;SDS011;12634;50.852;5.676;2023-02-25T13:15:59;2.55;;;0.70;;
24467;SDS011;12634;50.852;5.676;2023-02-25T13:18:45;2.55;;;0.68;;
24467;SDS011;12634;50.852;5.676;2023-02-25T13:24:19;2.05;;;0.70;;
24467;SDS011;12634;50.852;5.676;2023-02-25T13:29:57;2.60;;;1.10;;
24467;SDS011;12634;50.852;5.676;2023-02-25T13:32:42;4.15;;;0.98;;
24467;SDS011;12634;50.852;5.676;2023-02-25T13:35:20;4.05;;;1.23;;
24467;SDS011;12634;50.852;5.676;2023-02-25T13:37:59;3.92;;;0.88;;
24467;SDS011;12634;50.852;5.676;2023-02-25T13:40:41;4.20;;;0.80;;
24467;SDS011;12634;50.852;5.676;2023-02-25T13:43:21;3.80;;;0.90;;
24467;SDS011;12634;50.852;5.676;2023-02-25T13:49:08;4.30;;;0.85;;
24467;SDS011;12634;50.852;5.676;2023-02-25T13:52:09;2.72;;;0.60;;
24467;SDS011;12634;50.852;5.676;2023-02-25T13:54:54;3.15;;;0.60;;
24467;SDS011;12634;50.852;5.676;2023-02-25T13:57:54;4.95;;;0.60;;
24467;SDS011;12634;50.852;5.676;2023-02-25T14:00:49;2.78;;;0.77;;
24467;SDS011;12634;50.852;5.676;2023-02-25T14:06:46;2.42;;;0.60;;
24467;SDS011;12634;50.852;5.676;2023-02-25T14:12:09;3.75;;;0.85;;
24467;SDS011;12634;50.852;5.676;2023-02-25T14:17:37;2.58;;;0.80;;
24467;SDS011;12634;50.852;5.676;2023-02-25T14:20:19;4.93;;;1.42;;
24467;SDS011;12634;50.852;5.676;2023-02-25T14:22:55;3.45;;;0.80;;
24467;SDS011;12634;50.852;5.676;2023-02-25T14:25:36;5.30;;;1.25;;
24467;SDS011;12634;50.852;5.676;2023-02-25T14:28:14;5.30;;;1.10;;
24467;SDS011;12634;50.852;5.676;2023-02-25T14:30:51;4.13;;;0.80;;
24467;SDS011;12634;50.852;5.676;2023-02-25T14:33:34;4.68;;;1.00;;
24467;SDS011;12634;50.852;5.676;2023-02-25T14:36:34;4.40;;;1.35;;
24467;SDS011;12634;50.852;5.676;2023-02-25T14:39:21;3.53;;;1.15;;
24467;SDS011;12634;50.852;5.676;2023-02-25T14:42:20;4.78;;;1.15;;
24467;SDS011;12634;50.852;5.676;2023-02-25T14:44:58;5.30;;;1.10;;
24467;SDS011;12634;50.852;5.676;2023-02-25T14:47:31;5.23;;;0.83;;
24467;SDS011;12634;50.852;5.676;2023-02-25T14:50:05;7.35;;;1.70;;
24467;SDS011;12634;50.852;5.676;2023-02-25T14:52:48;3.92;;;1.20;;
24467;SDS011;12634;50.852;5.676;2023-02-25T14:58:47;4.40;;;1.00;;
24467;SDS011;12634;50.852;5.676;2023-02-25T15:01:30;5.80;;;0.98;;
24467;SDS011;12634;50.852;5.676;2023-02-25T15:04:11;6.30;;;1.23;;
24467;SDS011;12634;50.852;5.676;2023-02-25T15:07:14;5.97;;;1.08;;
24467;SDS011;12634;50.852;5.676;2023-02-25T15:10:00;2.70;;;0.98;;
24467;SDS011;12634;50.852;5.676;2023-02-25T15:15:48;3.30;;;1.00;;
24467;SDS011;12634;50.852;5.676;2023-02-25T15:18:51;5.88;;;1.50;;
24467;SDS011;12634;50.852;5.676;2023-02-25T15:21:41;4.45;;;1.02;;
24467;SDS011;12634;50.852;5.676;2023-02-25T15:30:10;3.80;;;0.90;;
24467;SDS011;12634;50.852;5.676;2023-02-25T15:32:48;4.60;;;1.30;;
24467;SDS011;12634;50.852;5.676;2023-02-25T15:35:20;6.70;;;1.00;;
24467;SDS011;12634;50.852;5.676;2023-02-25T15:40:43;4.18;;;1.20;;
24467;SDS011;12634;50.852;5.676;2023-02-25T15:49:02;3.72;;;1.10;;
24467;SDS011;12634;50.852;5.676;2023-02-25T15:51:47;7.43;;;1.27;;
24467;SDS011;12634;50.852;5.676;2023-02-25T16:00:01;5.55;;;1.45;;
24467;SDS011;12634;50.852;5.676;2023-02-25T16:02:38;3.63;;;0.93;;
24467;SDS011;12634;50.852;5.676;2023-02-25T16:05:16;7.47;;;1.50;;
24467;SDS011;12634;50.852;5.676;2023-02-25T16:07:46;4.15;;;1.02;;
24467;SDS011;12634;50.852;5.676;2023-02-25T16:10:18;4.43;;;1.17;;
24467;SDS011;12634;50.852;5.676;2023-02-25T16:12:52;6.88;;;1.40;;
24467;SDS011;12634;50.852;5.676;2023-02-25T16:15:24;3.78;;;1.30;;
24467;SDS011;12634;50.852;5.676;2023-02-25T16:17:55;6.20;;;1.33;;
24467;SDS011;12634;50.852;5.676;2023-02-25T16:20:26;3.97;;;1.30;;
24467;SDS011;12634;50.852;5.676;2023-02-25T16:22:56;6.28;;;1.70;;
24467;SDS011;12634;50.852;5.676;2023-02-25T16:25:27;6.82;;;1.88;;
24467;SDS011;12634;50.852;5.676;2023-02-25T16:28:05;6.82;;;1.33;;
24467;SDS011;12634;50.852;5.676;2023-02-25T16:30:41;7.38;;;1.10;;
24467;SDS011;12634;50.852;5.676;2023-02-25T16:33:17;7.60;;;1.40;;
24467;SDS011;12634;50.852;5.676;2023-02-25T16:35:58;6.90;;;1.10;;